Nelda Faye — WCX5150 — position and weather

sailwx.info

Track history (hours):
 
Tides and Currents Weather Stations Pressure Air Temp Water Temp Dewpoint Dewpoint Depression Visibility Wind Speed Wind Dir Waves Ship Positions

Nelda Faye

Owner: TARA CROSBY INC, GOLDEN MEADOW, LA. More information available from US FCC via Universal Licensing System and Coast Guard Vessel Documentation Center.

Last reported at 2017-Nov-18 13:49 UTC. Time now 2017-Nov-20 12:13 UTC.
Position N 30°03' W 093°43'.

Length 21 m; draft 2.5 m.

Type: Towing. MMSI: 367028910.

Date/timePositionNaut miles runAvg speedWind from/ knotsBaromVisibWave heightAir tempDewpointWater temp
2017-Nov-18 13:49N 30°03' W 093°43'2 5.1
2017-Nov-18 13:30N 30°04' W 093°41'2 5.0
2017-Nov-18 13:00N 30°04' W 093°38'2 4.3
2017-Nov-18 12:30N 30°04' W 093°36'2 4.4
2017-Nov-18 12:00N 30°04' W 093°33'2 4.5
2017-Nov-18 11:30N 30°04' W 093°31'2 4.9
2017-Nov-18 11:00N 30°04' W 093°28'2 4.9
2017-Nov-18 10:30N 30°04' W 093°25'2 5.0
2017-Nov-18 10:00N 30°04' W 093°22'2 4.5
2017-Nov-18 09:30N 30°05' W 093°20'2 3.7
2017-Nov-18 09:00N 30°06' W 093°18'1 3.0
2017-Nov-18 08:30N 30°05' W 093°17'1 1.4
2017-Nov-18 08:00N 30°04' W 093°16'0 1.0
2017-Nov-18 07:30N 30°04' W 093°16'0 0.0
2017-Nov-18 07:00N 30°04' W 093°16'0 0.0
2017-Nov-18 06:30N 30°04' W 093°16'0 0.1
2017-Nov-18 06:00N 30°04' W 093°16'0 0.0
2017-Nov-18 05:30N 30°04' W 093°16'0 0.6
2017-Nov-18 05:00N 30°03' W 093°16'1 2.2
2017-Nov-18 04:30N 30°02' W 093°15'2 4.3
2017-Nov-18 04:00N 30°01' W 093°14'2 3.8
2017-Nov-18 03:30N 29°59' W 093°13'2 4.8
2017-Nov-18 03:00N 29°57' W 093°11'2 4.3
2017-Nov-18 02:30N 29°56' W 093°09'2 4.7
2017-Nov-18 02:00N 29°56' W 093°06'2 4.9
2017-Nov-18 01:30N 29°56' W 093°03'35 4.5
2017-Nov-17 17:42N 29°52' W 092°23'1 4.7
2017-Nov-17 17:23N 29°51' W 092°22'2 4.7
2017-Nov-17 17:00N 29°50' W 092°20'2 4.3
2017-Nov-17 16:30N 29°49' W 092°18'2 4.7
2017-Nov-17 16:00N 29°48' W 092°15'2 4.7
2017-Nov-17 15:30N 29°47' W 092°13'0 0.9
2017-Nov-17 15:00N 29°47' W 092°12'1 1.7
2017-Nov-17 14:30N 29°47' W 092°11'0 0.6
2017-Nov-17 14:00N 29°47' W 092°11'1 1.8
2017-Nov-17 13:30N 29°47' W 092°10'2 4.8
2017-Nov-17 13:00N 29°47' W 092°07'2 4.7
2017-Nov-17 12:30N 29°48' W 092°05'2 4.5
2017-Nov-17 12:01N 29°49' W 092°02'2 4.3
2017-Nov-17 11:30N 29°50' W 092°00'2 4.8
2017-Nov-17 11:00N 29°50' W 091°57'7 4.8
2017-Nov-17 09:38N 29°50' W 091°50'1 5.0
2017-Nov-17 09:28N 29°49' W 091°50'5 4.8
2017-Nov-17 08:30N 29°46' W 091°46'  
2017-Nov-11 09:07N 29°48' W 092°14'0 0.0
2017-Nov-11 08:59N 29°48' W 092°14'1 1.0
2017-Nov-11 08:29N 29°48' W 092°14'13 4.1
2017-Nov-11 05:25N 29°54' W 092°27'67 4.7
2017-Nov-10 15:15N 30°03' W 093°44'3 4.9
2017-Nov-10 14:38N 30°00' W 093°46'5 5.3
2017-Nov-10 13:37N 29°58' W 093°51'  
Track history (hours):
 
Tides and Currents Weather Stations Pressure Air Temp Water Temp Dewpoint Dewpoint Depression Visibility Wind Speed Wind Dir Waves Ship Positions

Nelda Faye

Owner: TARA CROSBY INC, GOLDEN MEADOW, LA. More information available from US FCC via Universal Licensing System and Coast Guard Vessel Documentation Center.

Last reported at 2017-Nov-18 13:49 UTC. Time now 2017-Nov-20 12:13 UTC.
Position N 30°03' W 093°43'.

Length 21 m; draft 2.5 m.

Type: Towing. MMSI: 367028910.

Date/timePositionNaut miles runAvg speedWind from/ knotsBaromVisibWave heightAir tempDewpointWater temp
2017-Nov-18 13:49N 30°03' W 093°43'2 5.1
2017-Nov-18 13:30N 30°04' W 093°41'2 5.0
2017-Nov-18 13:00N 30°04' W 093°38'2 4.3
2017-Nov-18 12:30N 30°04' W 093°36'2 4.4
2017-Nov-18 12:00N 30°04' W 093°33'2 4.5
2017-Nov-18 11:30N 30°04' W 093°31'2 4.9
2017-Nov-18 11:00N 30°04' W 093°28'2 4.9
2017-Nov-18 10:30N 30°04' W 093°25'2 5.0
2017-Nov-18 10:00N 30°04' W 093°22'2 4.5
2017-Nov-18 09:30N 30°05' W 093°20'2 3.7
2017-Nov-18 09:00N 30°06' W 093°18'1 3.0
2017-Nov-18 08:30N 30°05' W 093°17'1 1.4
2017-Nov-18 08:00N 30°04' W 093°16'0 1.0
2017-Nov-18 07:30N 30°04' W 093°16'0 0.0
2017-Nov-18 07:00N 30°04' W 093°16'0 0.0
2017-Nov-18 06:30N 30°04' W 093°16'0 0.1
2017-Nov-18 06:00N 30°04' W 093°16'0 0.0
2017-Nov-18 05:30N 30°04' W 093°16'0 0.6
2017-Nov-18 05:00N 30°03' W 093°16'1 2.2
2017-Nov-18 04:30N 30°02' W 093°15'2 4.3
2017-Nov-18 04:00N 30°01' W 093°14'2 3.8
2017-Nov-18 03:30N 29°59' W 093°13'2 4.8
2017-Nov-18 03:00N 29°57' W 093°11'2 4.3
2017-Nov-18 02:30N 29°56' W 093°09'2 4.7
2017-Nov-18 02:00N 29°56' W 093°06'2 4.9
2017-Nov-18 01:30N 29°56' W 093°03'35 4.5
2017-Nov-17 17:42N 29°52' W 092°23'1 4.7
2017-Nov-17 17:23N 29°51' W 092°22'2 4.7
2017-Nov-17 17:00N 29°50' W 092°20'2 4.3
2017-Nov-17 16:30N 29°49' W 092°18'2 4.7
2017-Nov-17 16:00N 29°48' W 092°15'2 4.7
2017-Nov-17 15:30N 29°47' W 092°13'0 0.9
2017-Nov-17 15:00N 29°47' W 092°12'1 1.7
2017-Nov-17 14:30N 29°47' W 092°11'0 0.6
2017-Nov-17 14:00N 29°47' W 092°11'1 1.8
2017-Nov-17 13:30N 29°47' W 092°10'2 4.8
2017-Nov-17 13:00N 29°47' W 092°07'2 4.7
2017-Nov-17 12:30N 29°48' W 092°05'2 4.5
2017-Nov-17 12:01N 29°49' W 092°02'2 4.3
2017-Nov-17 11:30N 29°50' W 092°00'2 4.8
2017-Nov-17 11:00N 29°50' W 091°57'7 4.8
2017-Nov-17 09:38N 29°50' W 091°50'1 5.0
2017-Nov-17 09:28N 29°49' W 091°50'5 4.8
2017-Nov-17 08:30N 29°46' W 091°46'  
2017-Nov-11 09:07N 29°48' W 092°14'0 0.0
2017-Nov-11 08:59N 29°48' W 092°14'1 1.0
2017-Nov-11 08:29N 29°48' W 092°14'13 4.1
2017-Nov-11 05:25N 29°54' W 092°27'67 4.7
2017-Nov-10 15:15N 30°03' W 093°44'3 4.9
2017-Nov-10 14:38N 30°00' W 093°46'5 5.3
2017-Nov-10 13:37N 29°58' W 093°51'  

Dump ship's entire track history